sensor_id;sensor_type;location;lat;lon;timestamp;P1;durP1;ratioP1;P2;durP2;ratioP2
70829;SDS011;58451;51.550;7.208;2023-03-29T00:01:22;6.20;;;1.50;;
70829;SDS011;58451;51.550;7.208;2023-03-29T00:03:06;5.60;;;1.60;;
70829;SDS011;58451;51.550;7.208;2023-03-29T00:04:38;6.60;;;1.50;;
70829;SDS011;58451;51.550;7.208;2023-03-29T00:06:11;3.60;;;1.10;;
70829;SDS011;58451;51.550;7.208;2023-03-29T00:07:52;5.70;;;1.40;;
70829;SDS011;58451;51.550;7.208;2023-03-29T00:09:24;7.10;;;1.40;;
70829;SDS011;58451;51.550;7.208;2023-03-29T00:10:57;5.80;;;1.20;;
70829;SDS011;58451;51.550;7.208;2023-03-29T00:12:30;6.00;;;1.50;;
70829;SDS011;58451;51.550;7.208;2023-03-29T00:14:02;6.90;;;1.50;;
70829;SDS011;58451;51.550;7.208;2023-03-29T00:15:34;4.70;;;1.30;;
70829;SDS011;58451;51.550;7.208;2023-03-29T00:17:06;5.10;;;1.30;;
70829;SDS011;58451;51.550;7.208;2023-03-29T00:18:38;6.20;;;1.50;;
70829;SDS011;58451;51.550;7.208;2023-03-29T00:20:10;5.10;;;1.40;;
70829;SDS011;58451;51.550;7.208;2023-03-29T00:21:42;7.90;;;1.50;;
70829;SDS011;58451;51.550;7.208;2023-03-29T00:23:14;7.00;;;1.60;;
70829;SDS011;58451;51.550;7.208;2023-03-29T00:24:46;6.60;;;1.50;;
70829;SDS011;58451;51.550;7.208;2023-03-29T00:26:19;5.80;;;1.50;;
70829;SDS011;58451;51.550;7.208;2023-03-29T00:27:51;7.10;;;1.40;;
70829;SDS011;58451;51.550;7.208;2023-03-29T00:29:23;7.30;;;1.60;;
70829;SDS011;58451;51.550;7.208;2023-03-29T00:31:03;6.30;;;1.20;;
70829;SDS011;58451;51.550;7.208;2023-03-29T00:32:39;6.00;;;1.40;;
70829;SDS011;58451;51.550;7.208;2023-03-29T00:34:11;5.70;;;1.20;;
70829;SDS011;58451;51.550;7.208;2023-03-29T00:35:43;8.70;;;1.90;;
70829;SDS011;58451;51.550;7.208;2023-03-29T00:37:16;6.90;;;1.50;;
70829;SDS011;58451;51.550;7.208;2023-03-29T00:38:49;6.60;;;1.50;;
70829;SDS011;58451;51.550;7.208;2023-03-29T00:40:21;4.70;;;1.40;;
70829;SDS011;58451;51.550;7.208;2023-03-29T00:41:53;5.70;;;1.60;;
70829;SDS011;58451;51.550;7.208;2023-03-29T00:43:25;4.70;;;1.20;;
70829;SDS011;58451;51.550;7.208;2023-03-29T00:46:42;6.40;;;1.60;;
70829;SDS011;58451;51.550;7.208;2023-03-29T00:48:25;6.40;;;1.60;;
70829;SDS011;58451;51.550;7.208;2023-03-29T00:50:13;4.80;;;1.40;;
70829;SDS011;58451;51.550;7.208;2023-03-29T00:51:48;5.20;;;1.30;;
70829;SDS011;58451;51.550;7.208;2023-03-29T00:54:59;5.60;;;1.30;;
70829;SDS011;58451;51.550;7.208;2023-03-29T00:56:38;5.50;;;1.40;;
70829;SDS011;58451;51.550;7.208;2023-03-29T00:58:17;8.50;;;1.40;;
70829;SDS011;58451;51.550;7.208;2023-03-29T00:59:54;5.50;;;1.20;;
70829;SDS011;58451;51.550;7.208;2023-03-29T01:01:31;4.50;;;1.40;;
70829;SDS011;58451;51.550;7.208;2023-03-29T01:03:13;6.20;;;1.50;;
70829;SDS011;58451;51.550;7.208;2023-03-29T01:04:58;4.20;;;0.90;;
70829;SDS011;58451;51.550;7.208;2023-03-29T01:06:37;4.90;;;1.20;;
70829;SDS011;58451;51.550;7.208;2023-03-29T01:08:18;4.20;;;1.00;;
70829;SDS011;58451;51.550;7.208;2023-03-29T01:10:07;6.50;;;1.50;;
70829;SDS011;58451;51.550;7.208;2023-03-29T01:11:44;7.10;;;1.40;;
70829;SDS011;58451;51.550;7.208;2023-03-29T01:14:06;6.10;;;1.30;;
70829;SDS011;58451;51.550;7.208;2023-03-29T01:15:27;5.50;;;1.30;;
70829;SDS011;58451;51.550;7.208;2023-03-29T01:16:59;6.10;;;1.50;;
70829;SDS011;58451;51.550;7.208;2023-03-29T01:18:31;5.90;;;1.60;;
70829;SDS011;58451;51.550;7.208;2023-03-29T01:22:10;6.70;;;1.40;;
70829;SDS011;58451;51.550;7.208;2023-03-29T01:26:22;5.90;;;1.30;;
70829;SDS011;58451;51.550;7.208;2023-03-29T01:28:09;5.50;;;1.40;;
70829;SDS011;58451;51.550;7.208;2023-03-29T01:29:49;4.40;;;1.10;;
70829;SDS011;58451;51.550;7.208;2023-03-29T01:31:31;4.70;;;0.90;;
70829;SDS011;58451;51.550;7.208;2023-03-29T01:33:09;4.90;;;1.20;;
70829;SDS011;58451;51.550;7.208;2023-03-29T01:34:58;5.20;;;1.10;;
70829;SDS011;58451;51.550;7.208;2023-03-29T01:37:03;5.10;;;1.30;;
70829;SDS011;58451;51.550;7.208;2023-03-29T01:38:54;3.60;;;0.90;;
70829;SDS011;58451;51.550;7.208;2023-03-29T01:40:27;5.20;;;1.40;;
70829;SDS011;58451;51.550;7.208;2023-03-29T01:42:11;4.30;;;1.10;;
70829;SDS011;58451;51.550;7.208;2023-03-29T01:44:05;5.80;;;1.40;;
70829;SDS011;58451;51.550;7.208;2023-03-29T01:46:20;6.90;;;1.20;;
70829;SDS011;58451;51.550;7.208;2023-03-29T01:48:08;5.90;;;1.20;;
70829;SDS011;58451;51.550;7.208;2023-03-29T01:49:59;3.90;;;1.00;;
70829;SDS011;58451;51.550;7.208;2023-03-29T01:51:57;5.10;;;1.10;;
70829;SDS011;58451;51.550;7.208;2023-03-29T01:53:46;5.90;;;1.10;;
70829;SDS011;58451;51.550;7.208;2023-03-29T01:55:30;5.50;;;1.20;;
70829;SDS011;58451;51.550;7.208;2023-03-29T01:57:05;4.40;;;1.10;;
70829;SDS011;58451;51.550;7.208;2023-03-29T01:58:52;4.60;;;1.00;;
70829;SDS011;58451;51.550;7.208;2023-03-29T02:00:29;4.90;;;1.40;;
70829;SDS011;58451;51.550;7.208;2023-03-29T02:02:07;6.00;;;1.20;;
70829;SDS011;58451;51.550;7.208;2023-03-29T02:03:45;5.70;;;1.30;;
70829;SDS011;58451;51.550;7.208;2023-03-29T02:05:22;4.20;;;1.00;;
70829;SDS011;58451;51.550;7.208;2023-03-29T02:06:56;4.30;;;0.80;;
70829;SDS011;58451;51.550;7.208;2023-03-29T02:08:30;5.30;;;1.30;;
70829;SDS011;58451;51.550;7.208;2023-03-29T02:10:04;5.40;;;0.90;;
70829;SDS011;58451;51.550;7.208;2023-03-29T02:11:40;3.50;;;0.90;;
70829;SDS011;58451;51.550;7.208;2023-03-29T02:13:13;3.70;;;0.60;;
70829;SDS011;58451;51.550;7.208;2023-03-29T02:14:45;6.30;;;1.00;;
70829;SDS011;58451;51.550;7.208;2023-03-29T02:16:17;3.80;;;1.00;;
70829;SDS011;58451;51.550;7.208;2023-03-29T02:17:50;3.90;;;0.90;;
70829;SDS011;58451;51.550;7.208;2023-03-29T02:19:23;4.40;;;1.10;;
70829;SDS011;58451;51.550;7.208;2023-03-29T02:20:56;4.40;;;0.80;;
70829;SDS011;58451;51.550;7.208;2023-03-29T02:22:37;4.40;;;1.00;;
70829;SDS011;58451;51.550;7.208;2023-03-29T02:24:19;3.80;;;1.00;;
70829;SDS011;58451;51.550;7.208;2023-03-29T02:25:52;5.00;;;1.20;;
70829;SDS011;58451;51.550;7.208;2023-03-29T02:27:28;4.80;;;1.20;;
70829;SDS011;58451;51.550;7.208;2023-03-29T02:29:01;3.00;;;0.80;;
70829;SDS011;58451;51.550;7.208;2023-03-29T02:32:33;5.40;;;1.10;;
70829;SDS011;58451;51.550;7.208;2023-03-29T02:36:12;5.10;;;1.00;;
70829;SDS011;58451;51.550;7.208;2023-03-29T02:37:49;3.70;;;0.90;;
70829;SDS011;58451;51.550;7.208;2023-03-29T02:39:26;5.10;;;1.10;;
70829;SDS011;58451;51.550;7.208;2023-03-29T02:41:02;3.40;;;0.90;;
70829;SDS011;58451;51.550;7.208;2023-03-29T02:42:35;3.70;;;0.90;;
70829;SDS011;58451;51.550;7.208;2023-03-29T02:44:10;4.10;;;0.80;;
70829;SDS011;58451;51.550;7.208;2023-03-29T02:45:46;3.30;;;0.80;;
70829;SDS011;58451;51.550;7.208;2023-03-29T02:47:25;3.60;;;0.90;;
70829;SDS011;58451;51.550;7.208;2023-03-29T02:49:02;4.50;;;0.80;;
70829;SDS011;58451;51.550;7.208;2023-03-29T02:50:37;5.20;;;1.00;;
70829;SDS011;58451;51.550;7.208;2023-03-29T02:52:15;4.70;;;0.90;;
70829;SDS011;58451;51.550;7.208;2023-03-29T02:54:19;4.90;;;1.00;;
70829;SDS011;58451;51.550;7.208;2023-03-29T02:55:54;4.30;;;0.80;;
70829;SDS011;58451;51.550;7.208;2023-03-29T02:57:26;4.30;;;1.10;;
70829;SDS011;58451;51.550;7.208;2023-03-29T02:58:59;5.60;;;0.90;;
70829;SDS011;58451;51.550;7.208;2023-03-29T03:00:30;5.60;;;0.90;;
70829;SDS011;58451;51.550;7.208;2023-03-29T03:02:03;3.80;;;0.70;;
70829;SDS011;58451;51.550;7.208;2023-03-29T03:03:35;3.70;;;0.70;;
70829;SDS011;58451;51.550;7.208;2023-03-29T03:05:08;3.50;;;0.70;;
70829;SDS011;58451;51.550;7.208;2023-03-29T03:06:40;4.60;;;0.90;;
70829;SDS011;58451;51.550;7.208;2023-03-29T03:08:13;4.70;;;0.80;;
70829;SDS011;58451;51.550;7.208;2023-03-29T03:09:45;5.80;;;1.10;;
70829;SDS011;58451;51.550;7.208;2023-03-29T03:11:18;4.10;;;0.90;;
70829;SDS011;58451;51.550;7.208;2023-03-29T03:12:50;4.40;;;0.80;;
70829;SDS011;58451;51.550;7.208;2023-03-29T03:14:22;5.30;;;1.20;;
70829;SDS011;58451;51.550;7.208;2023-03-29T03:15:54;5.00;;;0.90;;
70829;SDS011;58451;51.550;7.208;2023-03-29T03:17:26;4.20;;;0.90;;
70829;SDS011;58451;51.550;7.208;2023-03-29T03:18:58;4.70;;;1.00;;
70829;SDS011;58451;51.550;7.208;2023-03-29T03:20:31;5.10;;;1.00;;
70829;SDS011;58451;51.550;7.208;2023-03-29T03:22:03;5.20;;;1.00;;
70829;SDS011;58451;51.550;7.208;2023-03-29T03:23:36;4.80;;;0.90;;
70829;SDS011;58451;51.550;7.208;2023-03-29T03:25:09;4.50;;;1.00;;
70829;SDS011;58451;51.550;7.208;2023-03-29T03:26:41;5.60;;;1.10;;
70829;SDS011;58451;51.550;7.208;2023-03-29T03:28:16;4.60;;;0.90;;
70829;SDS011;58451;51.550;7.208;2023-03-29T03:29:48;4.80;;;0.90;;
70829;SDS011;58451;51.550;7.208;2023-03-29T03:31:38;5.80;;;1.00;;
70829;SDS011;58451;51.550;7.208;2023-03-29T03:33:41;4.90;;;1.10;;
70829;SDS011;58451;51.550;7.208;2023-03-29T03:35:38;4.90;;;1.10;;
70829;SDS011;58451;51.550;7.208;2023-03-29T03:37:11;5.60;;;1.50;;
70829;SDS011;58451;51.550;7.208;2023-03-29T03:38:42;5.90;;;1.10;;
70829;SDS011;58451;51.550;7.208;2023-03-29T03:40:14;4.60;;;1.00;;
70829;SDS011;58451;51.550;7.208;2023-03-29T03:41:46;4.40;;;1.20;;
70829;SDS011;58451;51.550;7.208;2023-03-29T03:43:20;4.80;;;1.10;;
70829;SDS011;58451;51.550;7.208;2023-03-29T03:44:52;5.10;;;1.00;;
70829;SDS011;58451;51.550;7.208;2023-03-29T03:46:42;5.70;;;1.00;;
70829;SDS011;58451;51.550;7.208;2023-03-29T03:48:14;3.80;;;1.10;;
70829;SDS011;58451;51.550;7.208;2023-03-29T03:49:56;5.30;;;1.30;;
70829;SDS011;58451;51.550;7.208;2023-03-29T03:51:29;5.40;;;1.20;;
70829;SDS011;58451;51.550;7.208;2023-03-29T03:53:01;5.40;;;1.00;;
70829;SDS011;58451;51.550;7.208;2023-03-29T03:54:47;3.10;;;0.80;;
70829;SDS011;58451;51.550;7.208;2023-03-29T03:56:34;4.70;;;1.00;;
70829;SDS011;58451;51.550;7.208;2023-03-29T03:58:28;5.50;;;1.20;;
70829;SDS011;58451;51.550;7.208;2023-03-29T04:00:00;5.00;;;1.20;;
70829;SDS011;58451;51.550;7.208;2023-03-29T04:01:43;6.20;;;1.20;;
70829;SDS011;58451;51.550;7.208;2023-03-29T04:03:17;4.00;;;0.90;;
70829;SDS011;58451;51.550;7.208;2023-03-29T04:04:51;4.80;;;1.10;;
70829;SDS011;58451;51.550;7.208;2023-03-29T04:06:25;6.10;;;1.60;;
70829;SDS011;58451;51.550;7.208;2023-03-29T04:08:34;6.90;;;1.60;;
70829;SDS011;58451;51.550;7.208;2023-03-29T04:10:33;6.00;;;1.50;;
70829;SDS011;58451;51.550;7.208;2023-03-29T04:12:14;7.20;;;1.60;;
70829;SDS011;58451;51.550;7.208;2023-03-29T04:13:46;4.70;;;1.50;;
70829;SDS011;58451;51.550;7.208;2023-03-29T04:15:40;7.00;;;1.50;;
70829;SDS011;58451;51.550;7.208;2023-03-29T04:17:12;6.10;;;1.10;;
70829;SDS011;58451;51.550;7.208;2023-03-29T04:19:02;4.70;;;1.30;;
70829;SDS011;58451;51.550;7.208;2023-03-29T04:20:35;5.50;;;1.40;;
70829;SDS011;58451;51.550;7.208;2023-03-29T04:22:06;3.50;;;1.20;;
70829;SDS011;58451;51.550;7.208;2023-03-29T04:23:40;5.10;;;1.50;;
70829;SDS011;58451;51.550;7.208;2023-03-29T04:25:13;6.30;;;1.60;;
70829;SDS011;58451;51.550;7.208;2023-03-29T04:26:51;6.10;;;1.70;;
70829;SDS011;58451;51.550;7.208;2023-03-29T04:28:27;7.50;;;1.70;;
70829;SDS011;58451;51.550;7.208;2023-03-29T04:30:13;4.70;;;1.50;;
70829;SDS011;58451;51.550;7.208;2023-03-29T04:32:03;4.70;;;1.50;;
70829;SDS011;58451;51.550;7.208;2023-03-29T04:33:56;5.80;;;1.60;;
70829;SDS011;58451;51.550;7.208;2023-03-29T04:35:31;6.00;;;1.40;;
70829;SDS011;58451;51.550;7.208;2023-03-29T04:37:03;7.90;;;1.70;;
70829;SDS011;58451;51.550;7.208;2023-03-29T04:38:41;7.30;;;1.60;;
70829;SDS011;58451;51.550;7.208;2023-03-29T04:40:19;6.40;;;1.60;;
70829;SDS011;58451;51.550;7.208;2023-03-29T04:42:05;5.20;;;1.00;;
70829;SDS011;58451;51.550;7.208;2023-03-29T04:43:38;8.00;;;1.80;;
70829;SDS011;58451;51.550;7.208;2023-03-29T04:45:17;6.50;;;1.80;;
70829;SDS011;58451;51.550;7.208;2023-03-29T04:47:02;7.00;;;1.80;;
70829;SDS011;58451;51.550;7.208;2023-03-29T04:48:54;6.40;;;1.70;;
70829;SDS011;58451;51.550;7.208;2023-03-29T04:50:36;7.90;;;2.10;;
70829;SDS011;58451;51.550;7.208;2023-03-29T04:52:08;9.00;;;3.10;;
70829;SDS011;58451;51.550;7.208;2023-03-29T04:53:40;8.00;;;2.30;;
70829;SDS011;58451;51.550;7.208;2023-03-29T04:55:12;6.30;;;1.80;;
70829;SDS011;58451;51.550;7.208;2023-03-29T04:56:49;5.90;;;1.70;;
70829;SDS011;58451;51.550;7.208;2023-03-29T04:58:38;5.80;;;1.80;;
70829;SDS011;58451;51.550;7.208;2023-03-29T05:00:10;7.50;;;1.90;;
70829;SDS011;58451;51.550;7.208;2023-03-29T05:02:04;7.20;;;1.80;;
70829;SDS011;58451;51.550;7.208;2023-03-29T05:03:35;5.50;;;1.70;;
70829;SDS011;58451;51.550;7.208;2023-03-29T05:05:15;7.20;;;1.80;;
70829;SDS011;58451;51.550;7.208;2023-03-29T05:06:48;8.60;;;1.70;;
70829;SDS011;58451;51.550;7.208;2023-03-29T05:08:20;6.30;;;1.50;;
70829;SDS011;58451;51.550;7.208;2023-03-29T05:10:10;7.40;;;1.60;;
70829;SDS011;58451;51.550;7.208;2023-03-29T05:11:42;6.50;;;1.70;;
70829;SDS011;58451;51.550;7.208;2023-03-29T05:13:14;6.10;;;1.90;;
70829;SDS011;58451;51.550;7.208;2023-03-29T05:14:47;6.60;;;1.30;;
70829;SDS011;58451;51.550;7.208;2023-03-29T05:16:19;7.90;;;2.00;;
70829;SDS011;58451;51.550;7.208;2023-03-29T05:17:51;10.20;;;1.90;;
70829;SDS011;58451;51.550;7.208;2023-03-29T05:19:24;4.70;;;1.50;;
70829;SDS011;58451;51.550;7.208;2023-03-29T05:20:56;6.00;;;1.40;;
70829;SDS011;58451;51.550;7.208;2023-03-29T05:22:30;6.00;;;1.60;;
70829;SDS011;58451;51.550;7.208;2023-03-29T05:24:02;6.40;;;1.70;;
70829;SDS011;58451;51.550;7.208;2023-03-29T05:25:53;5.70;;;1.40;;
70829;SDS011;58451;51.550;7.208;2023-03-29T05:27:25;6.90;;;1.70;;
70829;SDS011;58451;51.550;7.208;2023-03-29T05:29:03;7.30;;;1.70;;
70829;SDS011;58451;51.550;7.208;2023-03-29T05:30:35;9.50;;;2.00;;
70829;SDS011;58451;51.550;7.208;2023-03-29T05:32:13;5.70;;;1.60;;
70829;SDS011;58451;51.550;7.208;2023-03-29T05:33:46;8.50;;;2.40;;
70829;SDS011;58451;51.550;7.208;2023-03-29T05:35:19;8.50;;;1.80;;
70829;SDS011;58451;51.550;7.208;2023-03-29T05:36:51;5.60;;;1.60;;
70829;SDS011;58451;51.550;7.208;2023-03-29T05:38:23;8.80;;;2.50;;
70829;SDS011;58451;51.550;7.208;2023-03-29T05:39:55;5.90;;;1.90;;
70829;SDS011;58451;51.550;7.208;2023-03-29T05:41:37;6.50;;;1.90;;
70829;SDS011;58451;51.550;7.208;2023-03-29T05:43:32;8.50;;;1.80;;
70829;SDS011;58451;51.550;7.208;2023-03-29T05:45:04;9.00;;;2.20;;
70829;SDS011;58451;51.550;7.208;2023-03-29T05:46:36;7.60;;;2.40;;
70829;SDS011;58451;51.550;7.208;2023-03-29T05:48:09;7.80;;;2.30;;
70829;SDS011;58451;51.550;7.208;2023-03-29T05:49:43;7.60;;;2.30;;
70829;SDS011;58451;51.550;7.208;2023-03-29T05:51:19;6.00;;;2.00;;
70829;SDS011;58451;51.550;7.208;2023-03-29T05:52:55;7.70;;;2.50;;
70829;SDS011;58451;51.550;7.208;2023-03-29T05:54:27;9.20;;;2.20;;
70829;SDS011;58451;51.550;7.208;2023-03-29T05:55:59;8.10;;;2.70;;
70829;SDS011;58451;51.550;7.208;2023-03-29T05:57:34;8.20;;;2.50;;
70829;SDS011;58451;51.550;7.208;2023-03-29T05:59:08;7.50;;;2.20;;
70829;SDS011;58451;51.550;7.208;2023-03-29T06:00:40;7.50;;;2.50;;
70829;SDS011;58451;51.550;7.208;2023-03-29T06:02:23;7.70;;;2.20;;
70829;SDS011;58451;51.550;7.208;2023-03-29T06:03:56;9.30;;;1.90;;
70829;SDS011;58451;51.550;7.208;2023-03-29T06:05:35;9.80;;;2.30;;
70829;SDS011;58451;51.550;7.208;2023-03-29T06:07:08;6.50;;;2.10;;
70829;SDS011;58451;51.550;7.208;2023-03-29T06:08:43;7.50;;;2.30;;
70829;SDS011;58451;51.550;7.208;2023-03-29T06:10:28;6.90;;;2.40;;
70829;SDS011;58451;51.550;7.208;2023-03-29T06:12:12;7.80;;;2.30;;
70829;SDS011;58451;51.550;7.208;2023-03-29T06:13:52;7.90;;;2.40;;
70829;SDS011;58451;51.550;7.208;2023-03-29T06:15:23;7.90;;;2.20;;
70829;SDS011;58451;51.550;7.208;2023-03-29T06:17:02;9.20;;;2.70;;
70829;SDS011;58451;51.550;7.208;2023-03-29T06:18:34;8.20;;;2.40;;
70829;SDS011;58451;51.550;7.208;2023-03-29T06:20:07;8.80;;;2.30;;
70829;SDS011;58451;51.550;7.208;2023-03-29T06:21:43;6.50;;;2.30;;
70829;SDS011;58451;51.550;7.208;2023-03-29T06:23:19;11.70;;;3.20;;
70829;SDS011;58451;51.550;7.208;2023-03-29T06:24:53;7.60;;;2.00;;
70829;SDS011;58451;51.550;7.208;2023-03-29T06:26:31;8.80;;;2.50;;
70829;SDS011;58451;51.550;7.208;2023-03-29T06:28:03;8.70;;;2.70;;
70829;SDS011;58451;51.550;7.208;2023-03-29T06:29:37;8.00;;;2.40;;
70829;SDS011;58451;51.550;7.208;2023-03-29T06:31:09;8.20;;;2.80;;
70829;SDS011;58451;51.550;7.208;2023-03-29T06:32:42;11.00;;;2.80;;
70829;SDS011;58451;51.550;7.208;2023-03-29T06:34:25;8.50;;;2.70;;
70829;SDS011;58451;51.550;7.208;2023-03-29T06:36:12;9.60;;;3.20;;
70829;SDS011;58451;51.550;7.208;2023-03-29T06:37:46;8.50;;;3.00;;
70829;SDS011;58451;51.550;7.208;2023-03-29T06:39:28;10.10;;;3.20;;
70829;SDS011;58451;51.550;7.208;2023-03-29T06:41:20;5.90;;;1.50;;
70829;SDS011;58451;51.550;7.208;2023-03-29T06:43:20;7.90;;;2.30;;
70829;SDS011;58451;51.550;7.208;2023-03-29T06:45:08;7.70;;;1.90;;
70829;SDS011;58451;51.550;7.208;2023-03-29T06:46:40;8.30;;;2.80;;
70829;SDS011;58451;51.550;7.208;2023-03-29T06:48:12;7.10;;;2.50;;
70829;SDS011;58451;51.550;7.208;2023-03-29T06:49:44;8.30;;;2.90;;
70829;SDS011;58451;51.550;7.208;2023-03-29T06:51:33;8.10;;;2.70;;
70829;SDS011;58451;51.550;7.208;2023-03-29T06:53:05;9.40;;;2.90;;
70829;SDS011;58451;51.550;7.208;2023-03-29T06:54:37;8.40;;;2.80;;
70829;SDS011;58451;51.550;7.208;2023-03-29T06:56:09;10.00;;;2.80;;
70829;SDS011;58451;51.550;7.208;2023-03-29T06:57:41;8.00;;;2.70;;
70829;SDS011;58451;51.550;7.208;2023-03-29T06:59:13;8.70;;;2.50;;
70829;SDS011;58451;51.550;7.208;2023-03-29T07:01:05;10.00;;;2.80;;
70829;SDS011;58451;51.550;7.208;2023-03-29T07:02:49;8.40;;;2.50;;
70829;SDS011;58451;51.550;7.208;2023-03-29T07:04:21;7.80;;;2.50;;
70829;SDS011;58451;51.550;7.208;2023-03-29T07:06:16;8.10;;;2.50;;
70829;SDS011;58451;51.550;7.208;2023-03-29T07:07:50;8.50;;;2.70;;
70829;SDS011;58451;51.550;7.208;2023-03-29T07:09:51;6.70;;;2.30;;
70829;SDS011;58451;51.550;7.208;2023-03-29T07:11:44;8.40;;;2.70;;
70829;SDS011;58451;51.550;7.208;2023-03-29T07:13:26;6.40;;;2.00;;
70829;SDS011;58451;51.550;7.208;2023-03-29T07:14:58;8.40;;;2.50;;
70829;SDS011;58451;51.550;7.208;2023-03-29T07:16:45;9.10;;;2.70;;
70829;SDS011;58451;51.550;7.208;2023-03-29T07:18:22;7.50;;;2.40;;
70829;SDS011;58451;51.550;7.208;2023-03-29T07:19:53;7.80;;;2.50;;
70829;SDS011;58451;51.550;7.208;2023-03-29T07:21:50;7.40;;;2.10;;
70829;SDS011;58451;51.550;7.208;2023-03-29T07:23:25;8.80;;;2.20;;
70829;SDS011;58451;51.550;7.208;2023-03-29T07:24:57;7.10;;;2.40;;
70829;SDS011;58451;51.550;7.208;2023-03-29T07:26:30;6.60;;;2.10;;
70829;SDS011;58451;51.550;7.208;2023-03-29T07:28:03;7.20;;;2.20;;
70829;SDS011;58451;51.550;7.208;2023-03-29T07:29:35;7.80;;;2.40;;
70829;SDS011;58451;51.550;7.208;2023-03-29T07:31:10;6.40;;;2.10;;
70829;SDS011;58451;51.550;7.208;2023-03-29T07:32:49;8.80;;;2.30;;
70829;SDS011;58451;51.550;7.208;2023-03-29T07:34:36;8.00;;;2.10;;
70829;SDS011;58451;51.550;7.208;2023-03-29T07:36:09;7.80;;;2.20;;
70829;SDS011;58451;51.550;7.208;2023-03-29T07:37:42;7.50;;;2.50;;
70829;SDS011;58451;51.550;7.208;2023-03-29T07:39:15;6.50;;;2.00;;
70829;SDS011;58451;51.550;7.208;2023-03-29T07:40:55;7.00;;;2.40;;
70829;SDS011;58451;51.550;7.208;2023-03-29T07:42:45;7.20;;;2.00;;
70829;SDS011;58451;51.550;7.208;2023-03-29T07:44:20;7.30;;;2.20;;
70829;SDS011;58451;51.550;7.208;2023-03-29T07:45:52;7.90;;;2.00;;
70829;SDS011;58451;51.550;7.208;2023-03-29T07:47:24;7.00;;;2.10;;
70829;SDS011;58451;51.550;7.208;2023-03-29T07:48:56;7.80;;;2.00;;
70829;SDS011;58451;51.550;7.208;2023-03-29T07:50:28;7.10;;;2.10;;
70829;SDS011;58451;51.550;7.208;2023-03-29T07:52:03;7.70;;;2.20;;
70829;SDS011;58451;51.550;7.208;2023-03-29T07:53:36;5.20;;;1.50;;
70829;SDS011;58451;51.550;7.208;2023-03-29T07:55:11;7.20;;;2.20;;
70829;SDS011;58451;51.550;7.208;2023-03-29T07:57:09;6.60;;;2.00;;
70829;SDS011;58451;51.550;7.208;2023-03-29T07:58:45;7.70;;;2.00;;
70829;SDS011;58451;51.550;7.208;2023-03-29T08:00:17;6.40;;;2.00;;
70829;SDS011;58451;51.550;7.208;2023-03-29T08:01:56;7.60;;;1.80;;
70829;SDS011;58451;51.550;7.208;2023-03-29T08:03:50;8.50;;;2.20;;
70829;SDS011;58451;51.550;7.208;2023-03-29T08:05:23;8.20;;;1.70;;
70829;SDS011;58451;51.550;7.208;2023-03-29T08:07:15;8.00;;;2.00;;
70829;SDS011;58451;51.550;7.208;2023-03-29T08:09:00;7.70;;;1.70;;
70829;SDS011;58451;51.550;7.208;2023-03-29T08:10:32;6.30;;;1.70;;
70829;SDS011;58451;51.550;7.208;2023-03-29T08:12:26;7.60;;;1.80;;
70829;SDS011;58451;51.550;7.208;2023-03-29T08:13:59;6.50;;;1.80;;
70829;SDS011;58451;51.550;7.208;2023-03-29T08:15:49;6.50;;;1.50;;
70829;SDS011;58451;51.550;7.208;2023-03-29T08:17:27;7.80;;;1.80;;
70829;SDS011;58451;51.550;7.208;2023-03-29T08:18:59;7.20;;;2.00;;
70829;SDS011;58451;51.550;7.208;2023-03-29T08:20:42;7.30;;;1.70;;
70829;SDS011;58451;51.550;7.208;2023-03-29T08:22:14;4.80;;;1.70;;
70829;SDS011;58451;51.550;7.208;2023-03-29T08:24:15;5.60;;;1.70;;
70829;SDS011;58451;51.550;7.208;2023-03-29T08:25:53;5.60;;;1.50;;
70829;SDS011;58451;51.550;7.208;2023-03-29T08:27:25;6.10;;;1.50;;
70829;SDS011;58451;51.550;7.208;2023-03-29T08:28:58;5.00;;;1.50;;
70829;SDS011;58451;51.550;7.208;2023-03-29T08:30:30;6.00;;;1.60;;
70829;SDS011;58451;51.550;7.208;2023-03-29T08:32:04;7.00;;;1.80;;
70829;SDS011;58451;51.550;7.208;2023-03-29T08:33:36;8.20;;;2.20;;
70829;SDS011;58451;51.550;7.208;2023-03-29T08:35:26;4.50;;;1.20;;
70829;SDS011;58451;51.550;7.208;2023-03-29T08:37:19;7.20;;;1.90;;
70829;SDS011;58451;51.550;7.208;2023-03-29T08:38:51;6.70;;;1.60;;
70829;SDS011;58451;51.550;7.208;2023-03-29T08:40:25;6.40;;;1.70;;
70829;SDS011;58451;51.550;7.208;2023-03-29T08:48:54;5.70;;;1.50;;
70829;SDS011;58451;51.550;7.208;2023-03-29T08:50:33;6.30;;;1.60;;
70829;SDS011;58451;51.550;7.208;2023-03-29T08:52:23;7.50;;;1.50;;
70829;SDS011;58451;51.550;7.208;2023-03-29T08:54:42;7.80;;;1.60;;
70829;SDS011;58451;51.550;7.208;2023-03-29T08:56:41;7.40;;;1.80;;
70829;SDS011;58451;51.550;7.208;2023-03-29T08:58:32;5.00;;;1.30;;
70829;SDS011;58451;51.550;7.208;2023-03-29T09:00:06;6.70;;;1.50;;
70829;SDS011;58451;51.550;7.208;2023-03-29T09:01:51;5.60;;;1.90;;
70829;SDS011;58451;51.550;7.208;2023-03-29T09:03:33;6.90;;;1.70;;
70829;SDS011;58451;51.550;7.208;2023-03-29T09:05:37;5.40;;;1.70;;
70829;SDS011;58451;51.550;7.208;2023-03-29T09:07:19;7.30;;;2.00;;
70829;SDS011;58451;51.550;7.208;2023-03-29T09:08:52;6.00;;;1.80;;
70829;SDS011;58451;51.550;7.208;2023-03-29T09:10:29;5.60;;;1.30;;
70829;SDS011;58451;51.550;7.208;2023-03-29T09:14:31;6.10;;;1.90;;
70829;SDS011;58451;51.550;7.208;2023-03-29T09:16:26;5.40;;;1.60;;
70829;SDS011;58451;51.550;7.208;2023-03-29T09:20:18;4.70;;;1.60;;
70829;SDS011;58451;51.550;7.208;2023-03-29T09:22:02;8.00;;;2.30;;
70829;SDS011;58451;51.550;7.208;2023-03-29T09:24:01;9.50;;;2.20;;
70829;SDS011;58451;51.550;7.208;2023-03-29T09:26:26;8.60;;;2.60;;
70829;SDS011;58451;51.550;7.208;2023-03-29T09:28:35;6.40;;;2.30;;
70829;SDS011;58451;51.550;7.208;2023-03-29T09:32:22;9.50;;;2.40;;
70829;SDS011;58451;51.550;7.208;2023-03-29T09:34:12;8.30;;;1.80;;
70829;SDS011;58451;51.550;7.208;2023-03-29T09:36:18;9.30;;;2.20;;
70829;SDS011;58451;51.550;7.208;2023-03-29T09:37:59;6.10;;;1.60;;
70829;SDS011;58451;51.550;7.208;2023-03-29T09:39:31;4.90;;;1.80;;
70829;SDS011;58451;51.550;7.208;2023-03-29T09:42:58;5.00;;;1.40;;
70829;SDS011;58451;51.550;7.208;2023-03-29T09:44:51;6.80;;;2.00;;
70829;SDS011;58451;51.550;7.208;2023-03-29T09:46:45;6.00;;;2.00;;
70829;SDS011;58451;51.550;7.208;2023-03-29T09:48:24;6.70;;;2.10;;
70829;SDS011;58451;51.550;7.208;2023-03-29T09:50:04;6.20;;;1.90;;
70829;SDS011;58451;51.550;7.208;2023-03-29T09:52:08;5.90;;;1.80;;
70829;SDS011;58451;51.550;7.208;2023-03-29T09:53:46;6.20;;;2.00;;
70829;SDS011;58451;51.550;7.208;2023-03-29T09:55:28;6.10;;;1.80;;
70829;SDS011;58451;51.550;7.208;2023-03-29T09:57:25;6.00;;;1.70;;
70829;SDS011;58451;51.550;7.208;2023-03-29T09:58:58;9.70;;;2.40;;
70829;SDS011;58451;51.550;7.208;2023-03-29T10:00:29;6.50;;;1.90;;
70829;SDS011;58451;51.550;7.208;2023-03-29T10:02:08;7.20;;;2.30;;
70829;SDS011;58451;51.550;7.208;2023-03-29T10:03:50;5.70;;;1.50;;
70829;SDS011;58451;51.550;7.208;2023-03-29T10:05:24;6.70;;;2.00;;
70829;SDS011;58451;51.550;7.208;2023-03-29T10:07:02;6.40;;;1.80;;
70829;SDS011;58451;51.550;7.208;2023-03-29T10:10:13;6.90;;;1.70;;
70829;SDS011;58451;51.550;7.208;2023-03-29T10:11:55;6.50;;;1.90;;
70829;SDS011;58451;51.550;7.208;2023-03-29T10:13:30;7.00;;;2.10;;
70829;SDS011;58451;51.550;7.208;2023-03-29T10:15:05;5.90;;;1.80;;
70829;SDS011;58451;51.550;7.208;2023-03-29T10:16:54;9.30;;;2.10;;
70829;SDS011;58451;51.550;7.208;2023-03-29T10:18:29;5.40;;;1.50;;
70829;SDS011;58451;51.550;7.208;2023-03-29T10:20:03;7.10;;;1.80;;
70829;SDS011;58451;51.550;7.208;2023-03-29T10:21:39;8.10;;;2.30;;
70829;SDS011;58451;51.550;7.208;2023-03-29T10:23:16;5.30;;;1.70;;
70829;SDS011;58451;51.550;7.208;2023-03-29T10:24:50;5.80;;;1.80;;
70829;SDS011;58451;51.550;7.208;2023-03-29T10:26:29;4.90;;;1.40;;